Pagrindinis puslapis
METAR-TAF:

METAR-TAF

Oro uostai :

Bizerte, Tunisas

platuma: 37-15N, ilguma: 009-48E, Aukštis: 5 m

Dabartinis oras

Ataskaita buvo paskelbta 50 minutes, ne 10:00 UTC
Vėjas 13 kt iš Pietryčių
Temperatūra 29°C
Drėgmė 66%
Slėgis 1017 hPa
Matomumas 10 km arba daugiau
Mažai debesys ne aukštis 2000 ft
Išsisklaidę debesys ne aukštis 3000 ft

METAR: DTTB 211000Z 14013KT 9999 FEW020 SCT030 29/22 Q1017

Laikas: 11:50 (10:50 UTC)

Prognozė

Ataskaita buvo paskelbta 1 valandą ir 50 minutes, ne 09:00 UTC
Prognozė galioja nuo 21 metu 10 UTC su 21 metu 19 UTC
Vėjas 17 kt iš Pietryčių
Matomumas: 8000 m
Išsisklaidę debesys ne aukštis 2000 ft
Tikimybė 30% :
Laikinai
nuo 21 metu 15 UTC su 21 metu 19 UTC
Išsisklaidę debesys ne aukštis 2000 ft, aukštai iškilę kamuoliniai debesys.
Mažai debesys ne aukštis 2300 ft, Liūtiniai kamuoliniai debesys.
perkūnija, lietus

TAF: DTTB 210900Z 2110/2119 14017KT 8000 SCT020 PROB30 TEMPO 2115/2119 -TSRA SCT020TCU FEW023CB

Orai ataskaitas ir orų prognozės (METAR, TAF).

turimą stotys yra geltonos ir raudonos taškus žemėlapyje.

Perkelti pele per norėdami pamatyti stoties vardą.

Tada spustelėkite, norėdami matyti oro stebėjimo ir prognozės.

Norėdami pakeisti žemėlapį: spustelėkite ant žalios mygtukų su juodo kryžiaus žemyn,; žalią mygtuką su brūkšneliu, jei norite nutolinti; arba žalių rodyklių gretimoms žemėlapius.


METAR-TAF: